Time;durP1;ratioP1;P1;durP2;ratioP2;P2;SDS_P1;SDS_P2;PMS_P1;PMS_P2;Temp;Humidity;BMP_temperature;BMP_pressure;BME280_temperature;BME280_humidity;BME280_pressure;Samples;Min_cycle;Max_cycle;Signal;HPM_P1;HPM_P2
2023/05/26 00:01:20;;;;;;;41.35;8.25;;;;;;;11.04;100.00;102777.47;5234401;28;20037;-72
2023/05/26 00:03:50;;;;;;;31.50;7.07;;;;;;;11.03;100.00;102772.22;5230082;28;20355;-71
2023/05/26 00:06:21;;;;;;;40.17;7.88;;;;;;;10.99;100.00;102776.97;5238158;28;20105;-72
2023/05/26 00:08:51;;;;;;;38.47;7.57;;;;;;;10.97;100.00;102786.16;5235761;28;20112;-71
2023/05/26 00:11:22;;;;;;;47.83;7.38;;;;;;;10.94;100.00;102787.22;5240570;28;20112;-72
2023/05/26 00:13:52;;;;;;;35.55;7.28;;;;;;;10.95;100.00;102782.75;5237801;28;20017;-72
2023/05/26 00:16:23;;;;;;;32.03;7.88;;;;;;;10.91;100.00;102790.19;5241229;28;20031;-71
2023/05/26 00:18:53;;;;;;;30.08;7.32;;;;;;;10.90;100.00;102793.84;5241293;28;20055;-71
2023/05/26 00:21:24;;;;;;;41.72;7.60;;;;;;;10.86;100.00;102784.31;5241493;28;20064;-71
2023/05/26 00:23:54;;;;;;;40.53;8.55;;;;;;;10.85;100.00;102787.97;5239376;28;20438;-71
2023/05/26 00:26:25;;;;;;;32.58;7.75;;;;;;;10.81;100.00;102789.19;5231405;28;20025;-71
2023/05/26 00:28:56;;;;;;;50.85;10.05;;;;;;;10.80;100.00;102792.84;5226004;28;20103;-72
2023/05/26 00:31:26;;;;;;;33.35;7.53;;;;;;;10.77;100.00;102796.63;5225570;28;20422;-72
2023/05/26 00:33:57;;;;;;;33.58;7.68;;;;;;;10.73;100.00;102794.28;5230515;28;20115;-72
2023/05/26 00:36:27;;;;;;;37.78;8.02;;;;;;;10.71;100.00;102793.56;5232193;28;20536;-72
2023/05/26 00:38:58;;;;;;;42.78;8.25;;;;;;;10.68;100.00;102799.16;5238325;28;20108;-72
2023/05/26 00:41:28;;;;;;;38.20;6.38;;;;;;;10.63;100.00;102802.22;5240916;28;20104;-72
2023/05/26 00:43:59;;;;;;;39.55;7.40;;;;;;;10.62;100.00;102798.66;5237090;28;20028;-72
2023/05/26 00:46:30;;;;;;;51.33;8.13;;;;;;;10.61;100.00;102806.84;5233187;28;20035;-72
2023/05/26 00:49:00;;;;;;;31.67;6.88;;;;;;;10.57;100.00;102797.31;5236338;28;20144;-73
2023/05/26 00:51:32;;;;;;;35.22;6.70;;;;;;;10.54;100.00;102798.44;5240350;28;20103;-72
2023/05/26 00:54:05;;;;;;;30.00;7.32;;;;;;;10.52;100.00;102800.38;5239469;28;20016;-71
2023/05/26 00:56:36;;;;;;;46.60;7.43;;;;;;;10.47;100.00;102796.31;5246640;28;20495;-72
2023/05/26 00:59:06;;;;;;;34.13;6.53;;;;;;;10.43;100.00;102786.78;5234127;28;20037;-72
2023/05/26 01:01:37;;;;;;;34.47;8.52;;;;;;;10.37;100.00;102791.66;5240110;28;20167;-72
2023/05/26 01:04:08;;;;;;;37.45;7.35;;;;;;;10.34;100.00;102807.13;5240252;28;20040;-72
2023/05/26 01:06:40;;;;;;;45.47;7.20;;;;;;;10.29;100.00;102799.47;5236144;28;20471;-72
2023/05/26 01:09:12;;;;;;;21.30;7.07;;;;;;;10.26;100.00;102798.81;5233651;28;20115;-72
2023/05/26 01:12:01;;;;;;;35.15;7.03;;;;;;;10.21;100.00;102795.59;5236640;28;20017;-71
2023/05/26 01:14:54;;;;;;;35.08;7.53;;;;;;;10.18;100.00;102795.81;5234238;28;20508;-71
2023/05/26 01:17:46;;;;;;;40.08;7.18;;;;;;;10.13;100.00;102799.72;5233538;28;20119;-72
2023/05/26 01:20:38;;;;;;;34.35;6.55;;;;;;;10.12;100.00;102805.19;5230667;28;21224;-72
2023/05/26 01:23:27;;;;;;;33.72;5.88;;;;;;;10.10;100.00;102808.00;5243031;28;20505;-72
2023/05/26 01:26:35;;;;;;;34.60;5.97;;;;;;;10.08;100.00;102806.41;5234474;28;20090;-72
2023/05/26 01:29:11;;;;;;;35.20;6.28;;;;;;;10.04;100.00;102807.59;5226735;28;20039;-72
2023/05/26 01:31:42;;;;;;;43.97;7.25;;;;;;;10.00;100.00;102803.44;5226181;28;20128;-72
2023/05/26 01:34:12;;;;;;;35.42;7.57;;;;;;;9.97;100.00;102815.25;5228349;28;20112;-72
2023/05/26 01:36:43;;;;;;;35.35;7.38;;;;;;;9.96;100.00;102804.66;5229865;28;20124;-72
2023/05/26 01:39:13;;;;;;;38.70;6.75;;;;;;;9.92;100.00;102812.06;5229794;28;20100;-72
2023/05/26 01:41:53;;;;;;;22.88;5.95;;;;;;;9.91;100.00;102813.03;5225291;28;20053;-72
2023/05/26 01:44:45;;;;;;;33.50;6.15;;;;;;;9.86;100.00;102809.84;5239093;28;20100;-72
2023/05/26 01:47:17;;;;;;;37.35;5.68;;;;;;;9.82;100.00;102808.34;5233754;28;20115;-72
2023/05/26 01:49:51;;;;;;;35.67;6.70;;;;;;;9.79;100.00;102800.53;5232274;28;20016;-72
2023/05/26 01:52:22;;;;;;;35.20;6.60;;;;;;;9.77;100.00;102811.34;5229692;28;20025;-72
2023/05/26 01:54:58;;;;;;;36.90;7.00;;;;;;;9.74;100.00;102806.25;5234252;28;20020;-72
2023/05/26 01:57:35;;;;;;;34.00;7.55;;;;;;;9.72;100.00;102804.63;5230486;28;20140;-71
2023/05/26 02:00:09;;;;;;;29.63;6.13;;;;;;;9.69;100.00;102808.41;5244160;28;20394;-72
2023/05/26 02:02:47;;;;;;;51.22;7.15;;;;;;;9.70;100.00;102814.63;5236426;28;20362;-72
2023/05/26 02:05:18;;;;;;;39.45;7.88;;;;;;;9.66;100.00;102810.44;5235345;28;20032;-72
2023/05/26 02:07:50;;;;;;;26.40;6.18;;;;;;;9.63;100.00;102807.97;5237963;28;20041;-72
2023/05/26 02:10:20;;;;;;;36.55;6.22;;;;;;;9.59;100.00;102813.59;5237388;28;20025;-71
2023/05/26 02:12:51;;;;;;;40.13;6.50;;;;;;;9.53;100.00;102814.00;5241328;28;20024;-72
2023/05/26 02:15:21;;;;;;;42.67;6.78;;;;;;;9.50;100.00;102816.94;5238957;28;20051;-71
2023/05/26 02:17:54;;;;;;;33.50;7.10;;;;;;;9.47;100.00;102810.94;5234344;28;20051;-71
2023/05/26 02:20:25;;;;;;;35.72;6.80;;;;;;;9.44;100.00;102814.69;5231136;28;20102;-72
2023/05/26 02:22:56;;;;;;;33.03;6.05;;;;;;;9.42;100.00;102810.41;5246008;28;20539;-71
2023/05/26 02:25:30;;;;;;;40.20;7.22;;;;;;;9.38;100.00;102819.63;5227198;28;20024;-72
2023/05/26 02:28:01;;;;;;;34.35;6.47;;;;;;;9.37;100.00;102823.28;5224952;28;20020;-72
2023/05/26 02:30:31;;;;;;;32.42;6.32;;;;;;;9.35;100.00;102828.75;5230170;28;20457;-72
2023/05/26 02:33:02;;;;;;;32.15;5.75;;;;;;;9.33;100.00;102834.19;5244917;28;20032;-71
2023/05/26 02:35:32;;;;;;;36.10;8.88;;;;;;;9.29;100.00;102824.69;5225627;28;20038;-71
2023/05/26 02:38:03;;;;;;;37.50;7.05;;;;;;;9.26;100.00;102824.03;5226236;28;20051;-72
2023/05/26 02:40:33;;;;;;;40.78;7.03;;;;;;;9.24;100.00;102823.31;5226387;28;20544;-72
2023/05/26 02:43:04;;;;;;;39.75;6.72;;;;;;;9.20;100.00;102817.31;5229854;28;20691;-71
2023/05/26 02:45:34;;;;;;;38.50;7.15;;;;;;;9.21;100.00;102820.84;5227495;28;20024;-71
2023/05/26 02:48:05;;;;;;;41.90;6.88;;;;;;;9.19;100.00;102829.00;5234976;28;20142;-71
2023/05/26 02:50:35;;;;;;;43.63;8.52;;;;;;;9.16;100.00;102828.34;5237121;28;20532;-72
2023/05/26 02:53:06;;;;;;;24.50;6.47;;;;;;;9.14;100.00;102827.63;5233517;28;20036;-72
2023/05/26 02:55:38;;;;;;;37.10;6.80;;;;;;;9.11;100.00;102827.81;5236590;28;20246;-72
2023/05/26 02:58:08;;;;;;;37.10;6.90;;;;;;;9.08;100.00;102832.41;5234699;28;20052;-72
2023/05/26 03:00:39;;;;;;;32.33;6.18;;;;;;;9.05;100.00;102840.66;5230013;28;20074;-71
2023/05/26 03:03:10;;;;;;;29.38;6.68;;;;;;;8.99;100.00;102827.72;5230048;28;20047;-72
2023/05/26 03:05:41;;;;;;;30.38;7.35;;;;;;;8.95;100.00;102822.69;5233425;28;20498;-72
2023/05/26 03:08:11;;;;;;;37.15;6.55;;;;;;;8.92;100.00;102831.78;5242652;28;20028;-71
2023/05/26 03:10:43;;;;;;;35.38;7.25;;;;;;;8.93;100.00;102833.47;5235105;28;20077;-70
2023/05/26 03:13:14;;;;;;;39.13;7.00;;;;;;;8.92;100.00;102831.78;5235069;28;20438;-72
2023/05/26 03:15:44;;;;;;;41.88;7.90;;;;;;;8.91;100.00;102831.88;5213150;28;21715;-70
2023/05/26 03:18:16;;;;;;;52.65;7.70;;;;;;;8.88;100.00;102832.09;5241234;28;20450;-71
2023/05/26 03:20:48;;;;;;;32.17;5.88;;;;;;;8.81;100.00;102832.53;5238071;28;20032;-70
2023/05/26 03:23:18;;;;;;;44.58;7.80;;;;;;;8.79;100.00;102830.94;5233203;28;20020;-70
2023/05/26 03:25:49;;;;;;;42.28;7.65;;;;;;;8.75;100.00;102841.00;5236429;28;20309;-70
2023/05/26 03:28:19;;;;;;;35.65;6.90;;;;;;;8.76;100.00;102847.19;5227152;28;20032;-71
2023/05/26 03:30:51;;;;;;;36.00;7.50;;;;;;;8.70;100.00;102835.09;5226333;28;20393;-70
2023/05/26 03:33:21;;;;;;;40.50;7.45;;;;;;;8.69;100.00;102845.91;5228589;28;20382;-70
2023/05/26 03:35:51;;;;;;;38.00;7.72;;;;;;;8.66;100.00;102840.75;5227912;28;20025;-70
2023/05/26 03:38:22;;;;;;;32.00;7.28;;;;;;;8.65;100.00;102844.41;5240612;28;20107;-70
2023/05/26 03:40:53;;;;;;;29.80;6.55;;;;;;;8.62;100.00;102834.75;5230327;28;20138;-70
2023/05/26 03:43:23;;;;;;;47.53;7.95;;;;;;;8.63;100.00;102840.97;5234576;28;20044;-71
2023/05/26 03:45:54;;;;;;;40.90;8.07;;;;;;;8.61;100.00;102841.06;5230284;28;20036;-71
2023/05/26 03:48:24;;;;;;;49.92;7.32;;;;;;;8.61;100.00;102849.09;5236143;28;20165;-70
2023/05/26 03:50:55;;;;;;;34.78;6.85;;;;;;;8.59;100.00;102845.69;5230175;28;20077;-71
2023/05/26 03:53:26;;;;;;;44.00;7.88;;;;;;;8.61;100.00;102854.44;5237189;28;20507;-71
2023/05/26 03:55:56;;;;;;;43.70;7.40;;;;;;;8.61;100.00;102856.28;5231136;28;20044;-71
2023/05/26 03:58:27;;;;;;;42.35;7.70;;;;;;;8.61;100.00;102858.94;5237499;28;20032;-72
2023/05/26 04:00:57;;;;;;;43.67;6.95;;;;;;;8.59;100.00;102855.53;5234963;28;20021;-71
2023/05/26 04:03:28;;;;;;;42.25;7.45;;;;;;;8.60;100.00;102857.25;5239727;28;20032;-70
2023/05/26 04:05:59;;;;;;;36.35;8.00;;;;;;;8.59;100.00;102861.75;5237243;28;20095;-71
2023/05/26 04:08:30;;;;;;;44.03;7.97;;;;;;;8.59;100.00;102858.22;5238927;28;20051;-70
2023/05/26 04:11:00;;;;;;;37.92;6.70;;;;;;;8.56;100.00;102860.13;5218319;28;20049;-71
2023/05/26 04:13:32;;;;;;;33.55;6.57;;;;;;;8.57;100.00;102861.81;5225337;28;20017;-72
2023/05/26 04:16:03;;;;;;;42.10;6.88;;;;;;;8.57;100.00;102866.31;5222644;28;20067;-71
2023/05/26 04:18:36;;;;;;;38.35;7.03;;;;;;;8.56;100.00;102862.78;5223718;28;20505;-71
2023/05/26 04:21:07;;;;;;;38.53;7.55;;;;;;;8.59;100.00;102871.59;5230437;28;20035;-71
2023/05/26 04:23:38;;;;;;;36.78;6.28;;;;;;;8.61;100.00;102875.84;5240829;28;20024;-72
2023/05/26 04:26:08;;;;;;;47.72;6.88;;;;;;;8.66;100.00;102873.72;5223265;28;20025;-70
2023/05/26 04:28:39;;;;;;;36.75;6.97;;;;;;;8.70;100.00;102877.91;5226066;28;20105;-70
2023/05/26 04:31:10;;;;;;;41.13;8.20;;;;;;;8.73;100.00;102877.69;5225149;28;20017;-71
2023/05/26 04:33:40;;;;;;;35.63;6.70;;;;;;;8.76;100.00;102879.31;5226400;28;20505;-70
2023/05/26 04:36:12;;;;;;;32.25;6.57;;;;;;;8.79;100.00;102884.47;5224112;28;20068;-71
2023/05/26 04:38:47;;;;;;;34.92;8.23;;;;;;;8.81;100.00;102890.56;5229931;28;20094;-71
2023/05/26 04:41:18;;;;;;;45.72;7.75;;;;;;;8.80;100.00;102897.72;5235528;28;20040;-71
2023/05/26 04:43:49;;;;;;;42.47;6.70;;;;;;;8.84;100.00;102898.38;5227503;28;20471;-70
2023/05/26 04:46:19;;;;;;;42.15;6.97;;;;;;;8.89;100.00;102898.06;5235626;28;20476;-70
2023/05/26 04:48:52;;;;;;;39.65;7.20;;;;;;;8.89;100.00;102895.41;5235281;28;20042;-70
2023/05/26 04:51:22;;;;;;;35.95;6.75;;;;;;;8.94;100.00;102895.94;5235846;28;20020;-71
2023/05/26 04:53:53;;;;;;;43.95;7.07;;;;;;;9.01;100.00;102892.72;5232121;28;20366;-71
2023/05/26 04:56:25;;;;;;;41.88;7.47;;;;;;;9.05;100.00;102899.56;5228784;28;20115;-71
2023/05/26 04:58:56;;;;;;;38.15;6.60;;;;;;;9.08;100.00;102901.16;5232684;28;20540;-71
2023/05/26 05:01:26;;;;;;;43.28;6.88;;;;;;;9.09;100.00;102900.22;5236014;28;20021;-71
2023/05/26 05:03:57;;;;;;;39.15;7.45;;;;;;;9.14;100.00;102903.44;5234300;28;20451;-70
2023/05/26 05:06:27;;;;;;;41.20;7.72;;;;;;;9.17;100.00;102905.88;5229376;28;20059;-70
2023/05/26 05:08:57;;;;;;;42.22;7.07;;;;;;;9.23;100.00;102904.59;5229643;28;20120;-71
2023/05/26 05:11:28;;;;;;;36.75;7.03;;;;;;;9.28;100.00;102894.41;5236533;28;20049;-70
2023/05/26 05:13:58;;;;;;;51.95;7.10;;;;;;;9.33;100.00;102903.00;5235894;28;20553;-70
2023/05/26 05:16:29;;;;;;;46.80;7.95;;;;;;;9.37;100.00;102906.31;5230002;28;20109;-71
2023/05/26 05:18:59;;;;;;;29.02;7.10;;;;;;;9.42;100.00;102910.38;5229641;28;20031;-70
2023/05/26 05:21:30;;;;;;;34.95;6.93;;;;;;;9.49;100.00;102906.31;5236115;28;20232;-70
2023/05/26 05:24:00;;;;;;;30.65;5.32;;;;;;;9.56;100.00;102909.41;5240777;28;20115;-71
2023/05/26 05:26:31;;;;;;;37.47;6.28;;;;;;;9.63;100.00;102915.19;5234929;28;20104;-71
2023/05/26 05:29:01;;;;;;;34.92;7.53;;;;;;;9.72;100.00;102903.81;5229886;28;20025;-71
2023/05/26 05:31:32;;;;;;;52.80;6.93;;;;;;;9.77;100.00;102907.84;5234892;28;20039;-72
2023/05/26 05:34:02;;;;;;;35.40;6.25;;;;;;;9.82;100.00;102912.88;5238734;28;20067;-71
2023/05/26 05:36:33;;;;;;;41.30;7.10;;;;;;;9.90;100.00;102909.66;5226394;28;20104;-71
2023/05/26 05:39:04;;;;;;;35.10;6.97;;;;;;;9.99;100.00;102912.53;5230174;28;20150;-72
2023/05/26 05:41:35;;;;;;;42.00;7.43;;;;;;;10.07;100.00;102910.13;5239437;28;20028;-72
2023/05/26 05:44:05;;;;;;;41.38;7.53;;;;;;;10.22;100.00;102915.34;5239795;28;20058;-71
2023/05/26 05:46:36;;;;;;;43.97;7.05;;;;;;;10.34;100.00;102926.06;5237618;28;20029;-71
2023/05/26 05:49:06;;;;;;;42.92;7.72;;;;;;;10.43;100.00;102915.59;5244287;28;20383;-71
2023/05/26 05:51:37;;;;;;;35.70;7.00;;;;;;;10.60;100.00;102924.09;5233129;28;20024;-72
2023/05/26 05:54:07;;;;;;;36.60;6.38;;;;;;;10.86;100.00;102932.00;5235021;28;20032;-72
2023/05/26 05:56:38;;;;;;;33.10;6.90;;;;;;;11.23;100.00;102935.38;5237949;28;20032;-72
2023/05/26 05:59:10;;;;;;;34.72;6.72;;;;;;;11.79;100.00;102940.75;5237797;28;20397;-72
2023/05/26 06:01:41;;;;;;;31.92;6.13;;;;;;;12.38;100.00;102940.44;5231402;28;20370;-72
2023/05/26 06:04:11;;;;;;;41.00;6.60;;;;;;;12.98;100.00;102942.63;5232680;28;20162;-72
2023/05/26 06:06:42;;;;;;;33.75;6.60;;;;;;;13.49;100.00;102940.00;5237639;28;20498;-73
2023/05/26 06:09:12;;;;;;;35.25;5.90;;;;;;;13.86;100.00;102939.47;5238652;28;20039;-71
2023/05/26 06:11:44;;;;;;;27.65;5.80;;;;;;;14.25;100.00;102943.94;5234764;28;20064;-72
2023/05/26 06:14:14;;;;;;;25.77;5.30;;;;;;;14.55;100.00;102941.28;5232412;28;20031;-72
2023/05/26 06:16:45;;;;;;;31.38;5.65;;;;;;;14.63;100.00;102944.16;5235497;28;20032;-72
2023/05/26 06:19:15;;;;;;;24.83;6.03;;;;;;;14.65;100.00;102952.97;5238898;28;20028;-72
2023/05/26 06:21:45;;;;;;;37.60;6.25;;;;;;;14.45;100.00;102946.66;5227963;28;20112;-72
2023/05/26 06:24:16;;;;;;;34.42;6.25;;;;;;;14.70;100.00;102940.72;5239156;28;20021;-72
2023/05/26 06:26:46;;;;;;;33.13;5.63;;;;;;;14.93;100.00;102954.81;5232351;28;20159;-72
2023/05/26 06:29:17;;;;;;;32.55;6.22;;;;;;;14.98;100.00;102957.94;5224734;28;20029;-72
2023/05/26 06:31:47;;;;;;;33.47;6.15;;;;;;;15.21;100.00;102955.78;5224669;28;20032;-72
2023/05/26 06:34:18;;;;;;;35.10;5.88;;;;;;;15.11;100.00;102952.22;5243333;28;20425;-72
2023/05/26 06:36:50;;;;;;;27.85;5.95;;;;;;;15.26;100.00;102955.31;5231217;28;20051;-72
2023/05/26 06:39:23;;;;;;;27.55;6.30;;;;;;;15.57;100.00;102949.69;5235825;28;20033;-71
2023/05/26 06:41:53;;;;;;;32.08;6.07;;;;;;;15.60;100.00;102946.66;5234061;28;20024;-72
2023/05/26 06:44:26;;;;;;;28.13;6.57;;;;;;;15.86;100.00;102957.69;5244746;28;20024;-72
2023/05/26 06:46:56;;;;;;;32.40;6.25;;;;;;;15.83;100.00;102963.41;5230256;28;20017;-72
2023/05/26 06:49:27;;;;;;;34.38;7.82;;;;;;;15.52;100.00;102961.81;5239264;28;20024;-73
2023/05/26 06:51:58;;;;;;;31.83;6.22;;;;;;;15.51;100.00;102951.09;5232618;28;20042;-72
2023/05/26 06:54:28;;;;;;;32.35;7.15;;;;;;;16.07;100.00;102947.47;5230055;28;20024;-72
2023/05/26 06:57:00;;;;;;;29.90;6.43;;;;;;;16.06;100.00;102964.72;5243053;28;20103;-72
2023/05/26 06:59:31;;;;;;;40.88;6.95;;;;;;;16.08;100.00;102962.72;5230400;28;20094;-72
2023/05/26 07:02:02;;;;;;;32.28;6.82;;;;;;;16.39;100.00;102954.25;5233676;28;20111;-72
2023/05/26 07:04:33;;;;;;;27.75;5.93;;;;;;;16.38;100.00;102963.41;5236294;28;20025;-73
2023/05/26 07:07:03;;;;;;;28.48;6.60;;;;;;;16.57;100.00;102974.09;5233460;28;20419;-73
2023/05/26 07:09:34;;;;;;;36.50;6.72;;;;;;;16.39;100.00;102963.22;5224464;28;20037;-73
2023/05/26 07:12:06;;;;;;;33.35;6.40;;;;;;;15.79;100.00;102973.69;5233034;28;20288;-72
2023/05/26 07:14:37;;;;;;;26.52;6.47;;;;;;;15.64;100.00;102973.31;5233907;28;20040;-73
2023/05/26 07:17:08;;;;;;;33.92;6.75;;;;;;;16.06;100.00;102972.84;5217649;28;20107;-73
2023/05/26 07:19:38;;;;;;;27.70;6.00;;;;;;;16.75;100.00;102974.97;5230720;28;20583;-73
2023/05/26 07:22:09;;;;;;;31.33;6.45;;;;;;;17.39;100.00;102966.66;5226163;28;20481;-73
2023/05/26 07:24:39;;;;;;;32.47;6.72;;;;;;;17.81;100.00;102964.00;5238486;28;20025;-73
2023/05/26 07:27:10;;;;;;;28.83;6.70;;;;;;;18.15;100.00;102966.69;5239562;28;20025;-73
2023/05/26 07:29:40;;;;;;;29.90;6.78;;;;;;;18.48;100.00;102969.50;5222359;28;20021;-73
2023/05/26 07:32:11;;;;;;;37.95;6.10;;;;;;;18.63;100.00;102974.13;5226043;28;20450;-73
2023/05/26 07:34:41;;;;;;;25.13;5.75;;;;;;;18.70;100.00;102973.47;5239831;28;20500;-72
2023/05/26 07:37:12;;;;;;;24.45;5.22;;;;;;;18.84;100.00;102973.66;5238459;28;20749;-72
2023/05/26 07:39:42;;;;;;;20.35;5.65;;;;;;;18.75;100.00;102969.22;5244580;28;20466;-73
2023/05/26 07:42:13;;;;;;;23.90;6.03;;;;;;;18.75;100.00;102968.38;5240294;28;20028;-73
2023/05/26 07:44:43;;;;;;;28.25;6.10;;;;;;;18.74;100.00;102970.25;5240188;28;20085;-73
2023/05/26 07:47:13;;;;;;;34.40;7.10;;;;;;;19.04;100.00;102970.59;5246020;28;20370;-72
2023/05/26 07:49:44;;;;;;;35.40;5.95;;;;;;;19.44;100.00;102971.56;5240202;28;20390;-72
2023/05/26 07:52:15;;;;;;;27.33;6.05;;;;;;;19.60;100.00;102963.38;5246506;28;20032;-73
2023/05/26 07:54:45;;;;;;;20.55;4.82;;;;;;;19.78;100.00;102974.91;5240157;28;20017;-73
2023/05/26 07:57:16;;;;;;;35.42;5.90;;;;;;;19.71;100.00;102976.63;5240046;28;20028;-73
2023/05/26 07:59:46;;;;;;;25.92;5.57;;;;;;;19.48;100.00;102968.31;5238973;28;20111;-73
2023/05/26 08:02:17;;;;;;;36.17;5.65;;;;;;;19.54;100.00;102955.88;5243418;28;20138;-73
2023/05/26 08:04:47;;;;;;;30.33;6.78;;;;;;;19.53;100.00;102965.06;5238243;28;20498;-73
2023/05/26 08:07:18;;;;;;;32.15;6.57;;;;;;;19.82;100.00;102962.59;5244511;28;20142;-73
2023/05/26 08:09:48;;;;;;;25.00;6.15;;;;;;;20.01;100.00;102955.88;5241020;28;20393;-73
2023/05/26 08:12:19;;;;;;;23.33;5.55;;;;;;;20.13;100.00;102957.22;5239058;28;20560;-73
2023/05/26 08:14:49;;;;;;;18.27;5.65;;;;;;;19.99;100.00;102949.78;5241656;28;20397;-73
2023/05/26 08:17:20;;;;;;;28.98;5.97;;;;;;;20.27;100.00;102958.28;5240001;28;20036;-73
2023/05/26 08:19:50;;;;;;;30.55;5.65;;;;;;;20.29;100.00;102955.41;5245026;28;20065;-73
2023/05/26 08:22:21;;;;;;;38.33;6.35;;;;;;;20.49;100.00;102950.38;5238603;28;20099;-73
2023/05/26 08:24:53;;;;;;;31.40;6.57;;;;;;;21.14;100.00;102955.28;5240751;28;20707;-73
2023/05/26 08:27:24;;;;;;;32.42;6.22;;;;;;;21.02;100.00;102954.03;5246220;28;20032;-72
2023/05/26 08:29:54;;;;;;;26.27;6.28;;;;;;;20.78;100.00;102960.53;5240442;28;20052;-73
2023/05/26 08:32:25;;;;;;;25.65;5.75;;;;;;;21.24;100.00;102952.28;5239650;28;20051;-73
2023/05/26 08:34:55;;;;;;;29.88;5.75;;;;;;;20.62;100.00;102954.19;5242777;28;20021;-72
2023/05/26 08:37:26;;;;;;;25.42;6.82;;;;;;;20.59;100.00;102951.84;5241944;28;20041;-73
2023/05/26 08:39:57;;;;;;;26.33;6.38;;;;;;;20.70;100.00;102956.00;5256727;28;20115;-73
2023/05/26 08:42:30;;;;;;;31.55;6.18;;;;;;;20.89;100.00;102966.41;5239579;28;20028;-73
2023/05/26 08:45:02;;;;;;;40.70;6.10;;;;;;;21.01;100.00;102963.25;5246779;28;20024;-73
2023/05/26 08:47:35;;;;;;;25.05;6.43;;;;;;;20.82;100.00;102968.16;5238102;28;20028;-73
2023/05/26 08:50:08;;;;;;;24.45;5.43;;;;;;;20.71;100.00;102956.84;5244529;28;20016;-73
2023/05/26 08:52:39;;;;;;;23.88;6.13;;;;;;;20.87;100.00;102959.44;5240063;28;20031;-73
2023/05/26 08:55:11;;;;;;;35.83;6.13;;;;;;;20.92;100.00;102957.00;5242908;28;20462;-73
2023/05/26 08:57:41;;;;;;;23.70;5.45;;;;;;;21.11;100.00;102958.38;5249915;28;20032;-73
2023/05/26 09:00:12;;;;;;;24.70;6.50;;;;;;;21.31;100.00;102943.19;5242455;28;20394;-74
2023/05/26 09:02:43;;;;;;;27.35;5.90;;;;;;;21.32;100.00;102958.53;5242678;28;20032;-73
2023/05/26 09:05:14;;;;;;;26.38;6.22;;;;;;;21.25;100.00;102967.63;5250329;28;20020;-73
2023/05/26 09:07:44;;;;;;;26.88;7.25;;;;;;;21.22;100.00;102955.19;5252807;28;20115;-73
2023/05/26 09:10:27;;;;;;;25.60;5.78;;;;;;;21.50;100.00;102946.41;5246403;28;20020;-73
2023/05/26 09:16:03;;;;;;;26.08;6.32;;;;;;;21.63;100.00;102952.03;5253313;28;20069;-73
2023/05/26 09:18:40;;;;;;;30.17;5.80;;;;;;;21.89;100.00;102957.88;5242842;28;20020;-74
2023/05/26 09:21:11;;;;;;;21.65;6.05;;;;;;;21.93;97.11;102956.44;5244688;28;20023;-73
2023/05/26 09:23:46;;;;;;;32.33;6.80;;;;;;;21.93;92.36;102956.44;5242439;28;20478;-73
2023/05/26 09:26:17;;;;;;;;;;;;;;;21.65;98.95;102955.44;5243959;28;20021;-73
2023/05/26 09:28:48;;;;;;;32.47;6.50;;;;;;;21.98;100.00;102945.78;5243345;28;20431;-73
2023/05/26 09:31:18;;;;;;;26.42;6.05;;;;;;;21.84;94.79;102949.41;5246765;28;20489;-73
2023/05/26 09:33:50;;;;;;;31.10;6.15;;;;;;;21.58;96.18;102946.31;5252820;28;20031;-72
2023/05/26 09:36:23;;;;;;;28.65;7.03;;;;;;;21.41;99.65;102945.66;5243548;28;20020;-72
2023/05/26 09:38:54;;;;;;;26.58;6.07;;;;;;;21.42;98.52;102950.91;5225600;28;20229;-72
2023/05/26 09:41:35;;;;;;;38.30;6.22;;;;;;;21.29;91.41;102952.59;5243504;28;20020;-71
2023/05/26 09:44:09;;;;;;;22.33;5.70;;;;;;;21.45;91.06;102956.00;5249957;28;20036;-72
2023/05/26 09:46:41;;;;;;;29.60;5.88;;;;;;;21.54;91.71;102945.00;5246092;28;20150;-71
2023/05/26 09:49:13;;;;;;;21.35;6.78;;;;;;;21.54;93.26;102937.66;5245270;28;20027;-72
2023/05/26 09:51:46;;;;;;;29.02;6.75;;;;;;;21.61;95.54;102940.47;5253962;28;20363;-72
2023/05/26 09:54:17;;;;;;;30.65;6.80;;;;;;;21.58;86.82;102949.88;5245454;28;20491;-72
2023/05/26 09:57:10;;;;;;;27.90;5.63;;;;;;;21.39;87.91;102950.47;5246957;28;20394;-72
2023/05/26 09:59:41;;;;;;;25.83;6.45;;;;;;;21.50;93.52;102930.88;5243902;28;20023;-72
2023/05/26 10:02:29;;;;;;;23.30;5.78;;;;;;;21.80;97.19;102931.69;5248834;28;20043;-72
2023/05/26 10:05:01;;;;;;;23.25;6.25;;;;;;;21.90;89.88;102936.88;5242233;28;20039;-72
2023/05/26 10:07:32;;;;;;;27.10;6.25;;;;;;;21.82;84.22;102943.28;5242255;28;20401;-72
2023/05/26 10:10:03;;;;;;;26.20;6.13;;;;;;;21.77;78.27;102940.25;5245575;28;20069;-72
2023/05/26 10:12:35;;;;;;;30.98;6.55;;;;;;;21.79;84.42;102940.06;5252482;28;20032;-72
2023/05/26 10:15:06;;;;;;;26.77;5.63;;;;;;;21.61;79.35;102933.13;5241621;28;20020;-72
2023/05/26 10:17:38;;;;;;;26.23;6.15;;;;;;;21.54;86.17;102934.94;5241386;28;20017;-72
2023/05/26 10:20:08;;;;;;;24.65;5.57;;;;;;;21.70;79.78;102936.59;5244271;28;20036;-73
2023/05/26 10:22:40;;;;;;;22.20;5.78;;;;;;;21.49;79.20;102931.03;5242429;28;20389;-72
2023/05/26 10:25:22;;;;;;;22.08;5.65;;;;;;;21.35;78.73;102930.88;5242813;28;20024;-72
2023/05/26 10:28:24;;;;;;;24.88;5.45;;;;;;;21.29;80.73;102939.78;5243539;28;20032;-72
2023/05/26 10:31:10;;;;;;;16.60;4.65;;;;;;;21.16;74.48;102936.84;5246213;28;20024;-72
2023/05/26 10:33:42;;;;;;;28.38;5.47;;;;;;;21.37;74.52;102936.97;5241813;28;20031;-72
2023/05/26 10:36:15;;;;;;;23.33;5.65;;;;;;;21.49;85.46;102942.84;5248470;28;20039;-72
2023/05/26 10:38:50;;;;;;;23.90;5.85;;;;;;;21.50;84.20;102933.59;5250571;28;20059;-72
2023/05/26 10:41:34;;;;;;;23.85;6.13;;;;;;;21.54;80.44;102925.88;5250464;28;20020;-72
2023/05/26 10:44:05;;;;;;;24.15;5.85;;;;;;;21.60;83.96;102915.03;5240920;28;20023;-72
2023/05/26 10:46:38;;;;;;;20.17;5.35;;;;;;;21.70;84.97;102918.34;5241016;28;20098;-72
2023/05/26 10:49:34;;;;;;;21.02;5.65;;;;;;;21.82;79.42;102920.56;5249491;28;20023;-72
2023/05/26 10:52:24;;;;;;;23.77;6.47;;;;;;;21.32;72.01;102925.78;5245770;28;20473;-73
2023/05/26 10:54:58;;;;;;;22.08;6.10;;;;;;;21.45;81.59;102923.25;5244319;28;20201;-72
2023/05/26 10:57:33;;;;;;;20.58;4.90;;;;;;;21.48;77.17;102907.50;5247212;28;20079;-72
2023/05/26 11:00:24;;;;;;;21.95;5.65;;;;;;;21.53;83.17;102902.31;5246630;28;20042;-72
2023/05/26 11:02:55;;;;;;;27.13;5.32;;;;;;;21.61;78.12;102905.81;5249238;28;20240;-72
2023/05/26 11:05:54;;;;;;;25.67;5.50;;;;;;;21.27;73.48;102909.06;5242198;28;20024;-72
2023/05/26 11:08:25;;;;;;;23.00;5.40;;;;;;;21.26;79.21;102906.53;5249579;28;20020;-71
2023/05/26 11:11:26;;;;;;;19.40;5.07;;;;;;;21.35;74.82;102898.09;5245652;28;20024;-72
2023/05/26 11:14:12;;;;;;;23.90;5.97;;;;;;;21.49;76.18;102898.28;5248844;28;20028;-72
2023/05/26 11:16:43;;;;;;;22.15;5.35;;;;;;;21.56;76.31;102897.34;5248873;28;20075;-72
2023/05/26 11:19:15;;;;;;;23.55;6.03;;;;;;;21.56;71.75;102891.88;5224837;28;20401;-72
2023/05/26 11:21:45;;;;;;;16.33;4.95;;;;;;;21.66;74.52;102891.59;5251533;28;20476;-72
2023/05/26 11:24:16;;;;;;;21.75;4.88;;;;;;;21.85;66.79;102891.00;5241610;28;20054;-72
2023/05/26 11:26:47;;;;;;;20.55;5.43;;;;;;;22.00;62.83;102892.84;5247394;28;20036;-72
2023/05/26 11:29:22;;;;;;;19.10;5.10;;;;;;;21.91;62.41;102886.63;5249715;28;20020;-72
2023/05/26 11:31:53;;;;;;;18.80;4.90;;;;;;;21.88;71.79;102887.84;5249856;28;20027;-72
2023/05/26 11:34:24;;;;;;;21.92;4.75;;;;;;;21.60;57.73;102895.09;5240917;28;20750;-72
2023/05/26 11:36:55;;;;;;;23.73;5.55;;;;;;;21.26;62.41;102895.63;5248512;28;20024;-72
2023/05/26 11:42:15;;;;;;;17.38;5.22;;;;;;;21.31;61.13;102885.03;5247446;28;20028;-72
2023/05/26 11:44:46;;;;;;;23.38;5.10;;;;;;;21.07;61.89;102881.47;5239074;28;20118;-72